Sleepy Valley, California
Current Conditions -  °F | °C
As of 5:51 AM on Saturday 25 Oct 2014 (Local Time) from KVNY Reporting Station
Clear Clear  
Wind Chill: 57°   Ceiling: Unl
Heat Index: 57°   Visibility: 10mi
Dew Point: 43°   Wind: 3mph
Humidity: 59%   Direction: 10°N
Pressure: 30.01"   Gusts: NA
Location:  34.446°N, 118.517°W
Report Text: KVNY 251251Z 01003KT 10SM CLR 14/06 A3001 RMK AO2 SLP154 T01390061
Loading
Personal Weather Stations






























Interactive Weather Map
Tropical Storm Tracking
New forecast layout! Learn more

10-Day Weather Forecast

Advertisements
Track Severe Weather on mobile